Reubens, ID (83548)

11:48 PM PST on March 02, 2015 (GMT -0800)
Camas Prairie | Change Station
CLOSE
Current Station
Personal Weather Station
Location: Reubens, ID
Elevation: 3480 ft
Nearby Weather Stations

Elev 3480 ft 46.35 °N, 116.53 °W | Updated 6 minutes ago

Overcast
Overcast
27.9 °F
Feels Like 24 °F
N
3.5
Wind Variable Wind from NW
Gusts 3.5 mph

Today
High -- | Low -- °F
--% Chance of Precip.
Yesterday
High -- | Low -- °F
Precip. -- in
6:23 AM 5:33 PM
Waxing Gibbous, 95% visible
Pressure 29.94 in
Visibility 10.0 miles
Clouds Mostly Cloudy 1700 ft
Overcast 2400 ft
Windchill 24 °F
Dew Point 27 °F
Humidity 95%
Rainfall 0.00 in
Snow Depth Not available.
UV 0 out of 12
Pollen 4.00 out of 12
Air Quality Not available.
Flu Activity Not available.
METAR KGIC 030715Z AUTO 24012KT 10SM BKN017 OVC024 M01/M03 A2994 RMK AO1 T10111032

More Conditions Fewer Conditions

Pressure 29.94 in
Visibility 10.0 miles
Clouds Mostly Cloudy 1700 ft
Overcast 2400 ft
Windchill 24 °F
Dew Point 27 °F
Humidity 95%
Rainfall 0.00 in
Snow Depth Not available.
UV 0 out of 12
Pollen 4.00 out of 12
Air Quality Not available.
Flu Activity Not available.
METAR KGIC 030715Z AUTO 24012KT 10SM BKN017 OVC024 M01/M03 A2994 RMK AO1 T10111032

More Conditions Fewer Conditions

10-Day Weather Forecast

Almanac

Astronomy

Mar. 02, 2015 Rise Set
Actual Time
Civil Twilight
Nautical Twilight
Astronomical Twilight
Moon
Length of Visible Light
Length of Day
Tomorrow will be .
, % of the Moon is Illuminated

Today's Extremes

State Highs State Lows

Community

WunderPhotos

Upload Photos

1,802,073 photos uploaded!

WunderBlogs® & News

Nearby

Air Quality

  Air Quality AQ Index Pollutant
Not available.

Snow Depth

Station Depth Elevation

Earthquake Activity

City Distance Mag. Time & Date
Minimum magnitude displayed is 2.5.

Coastal Water Temperatures

Place Temperature

Nearby Weather Stations